sensor_id;sensor_type;location;lat;lon;timestamp;pressure;altitude;pressure_sealevel;temperature;humidity
48200;BME280;33990;44.602;10.976;2023-08-01T00:01:19;100339.19;;;27.56;56.89
48200;BME280;33990;44.602;10.976;2023-08-01T00:03:46;100326.44;;;27.57;56.97
48200;BME280;33990;44.602;10.976;2023-08-01T00:06:14;100322.66;;;27.58;56.65
48200;BME280;33990;44.602;10.976;2023-08-01T00:08:41;100322.66;;;27.58;56.74
48200;BME280;33990;44.602;10.976;2023-08-01T00:11:08;100320.78;;;27.58;56.65
48200;BME280;33990;44.602;10.976;2023-08-01T00:13:37;100313.50;;;27.59;56.55
48200;BME280;33990;44.602;10.976;2023-08-01T00:16:04;100306.16;;;27.59;56.42
48200;BME280;33990;44.602;10.976;2023-08-01T00:18:34;100309.72;;;27.60;56.61
48200;BME280;33990;44.602;10.976;2023-08-01T00:21:03;100305.13;;;27.60;56.38
48200;BME280;33990;44.602;10.976;2023-08-01T00:23:32;100302.41;;;27.60;56.58
48200;BME280;33990;44.602;10.976;2023-08-01T00:26:00;100294.03;;;27.62;56.51
48200;BME280;33990;44.602;10.976;2023-08-01T00:28:27;100297.59;;;27.63;56.64
48200;BME280;33990;44.602;10.976;2023-08-01T00:31:08;100284.00;;;27.63;56.45
48200;BME280;33990;44.602;10.976;2023-08-01T00:33:36;100284.00;;;27.63;56.18
48200;BME280;33990;44.602;10.976;2023-08-01T00:36:03;100287.38;;;27.65;56.27
48200;BME280;33990;44.602;10.976;2023-08-01T00:38:36;100282.13;;;27.63;56.18
48200;BME280;33990;44.602;10.976;2023-08-01T00:41:04;100274.81;;;27.64;56.20
48200;BME280;33990;44.602;10.976;2023-08-01T00:43:31;100280.03;;;27.65;56.33
48200;BME280;33990;44.602;10.976;2023-08-01T00:46:00;100275.44;;;27.66;56.61
48200;BME280;33990;44.602;10.976;2023-08-01T00:48:31;100269.16;;;27.65;56.15
48200;BME280;33990;44.602;10.976;2023-08-01T00:51:00;100263.72;;;27.65;56.50
48200;BME280;33990;44.602;10.976;2023-08-01T00:53:28;100265.41;;;27.66;56.20
48200;BME280;33990;44.602;10.976;2023-08-01T00:55:57;100269.81;;;27.67;56.19
48200;BME280;33990;44.602;10.976;2023-08-01T00:58:25;100264.56;;;27.66;56.19
48200;BME280;33990;44.602;10.976;2023-08-01T01:00:53;100261.66;;;27.67;56.23
48200;BME280;33990;44.602;10.976;2023-08-01T01:03:23;100250.78;;;27.67;56.18
48200;BME280;33990;44.602;10.976;2023-08-01T01:06:13;100248.91;;;27.68;56.50
48200;BME280;33990;44.602;10.976;2023-08-01T01:08:46;100245.34;;;27.67;56.08
48200;BME280;33990;44.602;10.976;2023-08-01T01:11:13;100246.19;;;27.68;56.32
48200;BME280;33990;44.602;10.976;2023-08-01T01:13:41;100243.25;;;27.69;56.34
48200;BME280;33990;44.602;10.976;2023-08-01T01:16:08;100236.97;;;27.69;55.94
48200;BME280;33990;44.602;10.976;2023-08-01T01:18:36;100236.97;;;27.69;56.21
48200;BME280;33990;44.602;10.976;2023-08-01T01:21:03;100233.22;;;27.70;56.30
48200;BME280;33990;44.602;10.976;2023-08-01T01:23:33;100229.66;;;27.69;56.38
48200;BME280;33990;44.602;10.976;2023-08-01T01:26:01;100227.78;;;27.70;56.26
48200;BME280;33990;44.602;10.976;2023-08-01T01:28:30;100226.72;;;27.71;56.13
48200;BME280;33990;44.602;10.976;2023-08-01T01:30:58;100228.41;;;27.72;56.01
48200;BME280;33990;44.602;10.976;2023-08-01T01:33:26;100229.44;;;27.71;55.91
48200;BME280;33990;44.602;10.976;2023-08-01T01:35:54;100229.44;;;27.71;56.14
48200;BME280;33990;44.602;10.976;2023-08-01T01:38:21;100222.97;;;27.72;56.04
48200;BME280;33990;44.602;10.976;2023-08-01T01:40:49;100222.97;;;27.72;56.26
48200;BME280;33990;44.602;10.976;2023-08-01T01:43:16;100214.81;;;27.72;55.73
48200;BME280;33990;44.602;10.976;2023-08-01T01:45:44;100218.38;;;27.72;56.16
48200;BME280;33990;44.602;10.976;2023-08-01T01:48:11;100215.66;;;27.72;55.83
48200;BME280;33990;44.602;10.976;2023-08-01T01:50:38;100222.81;;;27.73;56.10
48200;BME280;33990;44.602;10.976;2023-08-01T01:53:06;100218.19;;;27.74;56.16
48200;BME280;33990;44.602;10.976;2023-08-01T01:55:33;100214.63;;;27.73;56.16
48200;BME280;33990;44.602;10.976;2023-08-01T01:58:02;100215.47;;;27.74;56.06
48200;BME280;33990;44.602;10.976;2023-08-01T02:00:29;100206.47;;;27.73;55.74
48200;BME280;33990;44.602;10.976;2023-08-01T02:02:56;100216.31;;;27.74;56.05
48200;BME280;33990;44.602;10.976;2023-08-01T02:05:24;100208.16;;;27.74;55.93
48200;BME280;33990;44.602;10.976;2023-08-01T02:07:51;100211.72;;;27.75;55.77
48200;BME280;33990;44.602;10.976;2023-08-01T02:10:19;100206.25;;;27.75;55.88
48200;BME280;33990;44.602;10.976;2023-08-01T02:12:46;100209.84;;;27.75;56.29
48200;BME280;33990;44.602;10.976;2023-08-01T02:15:13;100207.13;;;27.75;55.92
48200;BME280;33990;44.602;10.976;2023-08-01T02:17:41;100200.81;;;27.75;56.27
48200;BME280;33990;44.602;10.976;2023-08-01T02:20:08;100193.53;;;27.75;55.87
48200;BME280;33990;44.602;10.976;2023-08-01T02:22:36;100191.66;;;27.76;55.80
48200;BME280;33990;44.602;10.976;2023-08-01T02:25:03;100193.53;;;27.75;55.91
48200;BME280;33990;44.602;10.976;2023-08-01T02:27:31;100191.66;;;27.76;56.01
48200;BME280;33990;44.602;10.976;2023-08-01T02:29:58;100196.03;;;27.77;55.98
48200;BME280;33990;44.602;10.976;2023-08-01T02:32:26;100189.75;;;27.76;56.08
48200;BME280;33990;44.602;10.976;2023-08-01T02:34:56;100188.94;;;27.76;56.16
48200;BME280;33990;44.602;10.976;2023-08-01T02:37:23;100185.16;;;27.77;55.95
48200;BME280;33990;44.602;10.976;2023-08-01T02:39:51;100186.00;;;27.77;56.33
48200;BME280;33990;44.602;10.976;2023-08-01T02:42:18;100185.16;;;27.77;56.02
48200;BME280;33990;44.602;10.976;2023-08-01T02:44:45;100183.28;;;27.77;56.14
48200;BME280;33990;44.602;10.976;2023-08-01T02:47:13;100182.44;;;27.77;56.27
48200;BME280;33990;44.602;10.976;2023-08-01T02:49:40;100177.00;;;27.77;56.08
48200;BME280;33990;44.602;10.976;2023-08-01T02:52:08;100174.28;;;27.77;56.05
48200;BME280;33990;44.602;10.976;2023-08-01T02:54:35;100179.72;;;27.77;56.27
48200;BME280;33990;44.602;10.976;2023-08-01T02:57:03;100186.00;;;27.77;56.26
48200;BME280;33990;44.602;10.976;2023-08-01T02:59:30;100184.09;;;27.78;56.14
48200;BME280;33990;44.602;10.976;2023-08-01T03:02:00;100184.94;;;27.78;56.21
48200;BME280;33990;44.602;10.976;2023-08-01T03:04:28;100183.28;;;27.77;56.14
48200;BME280;33990;44.602;10.976;2023-08-01T03:07:13;100193.94;;;27.79;56.12
48200;BME280;33990;44.602;10.976;2023-08-01T03:09:40;100203.16;;;27.78;56.11
48200;BME280;33990;44.602;10.976;2023-08-01T03:12:09;100199.38;;;27.79;56.34
48200;BME280;33990;44.602;10.976;2023-08-01T03:14:37;100197.72;;;27.78;56.26
48200;BME280;33990;44.602;10.976;2023-08-01T03:17:05;100199.38;;;27.79;56.10
48200;BME280;33990;44.602;10.976;2023-08-01T03:19:32;100204.81;;;27.79;56.41
48200;BME280;33990;44.602;10.976;2023-08-01T03:22:00;100193.94;;;27.79;56.38
48200;BME280;33990;44.602;10.976;2023-08-01T03:24:27;100193.94;;;27.79;56.10
48200;BME280;33990;44.602;10.976;2023-08-01T03:26:55;100185.78;;;27.79;56.08
48200;BME280;33990;44.602;10.976;2023-08-01T03:29:22;100178.66;;;27.78;55.98
48200;BME280;33990;44.602;10.976;2023-08-01T03:31:49;100185.38;;;27.75;55.81
48200;BME280;33990;44.602;10.976;2023-08-01T03:34:17;100183.66;;;27.74;55.26
48200;BME280;33990;44.602;10.976;2023-08-01T03:36:44;100169.59;;;27.71;54.48
48200;BME280;33990;44.602;10.976;2023-08-01T03:39:11;100173.38;;;27.70;54.44
48200;BME280;33990;44.602;10.976;2023-08-01T03:41:39;100171.06;;;27.67;54.22
48200;BME280;33990;44.602;10.976;2023-08-01T03:44:07;100163.94;;;27.66;53.83
48200;BME280;33990;44.602;10.976;2023-08-01T03:46:34;100176.94;;;27.64;54.18
48200;BME280;33990;44.602;10.976;2023-08-01T03:49:01;100174.59;;;27.60;54.11
48200;BME280;33990;44.602;10.976;2023-08-01T03:51:29;100166.66;;;27.59;53.96
48200;BME280;33990;44.602;10.976;2023-08-01T03:53:56;100167.69;;;27.58;54.31
48200;BME280;33990;44.602;10.976;2023-08-01T03:56:39;100166.00;;;27.57;53.94
48200;BME280;33990;44.602;10.976;2023-08-01T03:59:14;100166.22;;;27.55;53.95
48200;BME280;33990;44.602;10.976;2023-08-01T04:01:42;100162.66;;;27.55;53.78
48200;BME280;33990;44.602;10.976;2023-08-01T04:04:10;100154.91;;;27.52;53.30
48200;BME280;33990;44.602;10.976;2023-08-01T04:06:37;100139.59;;;27.44;53.45
48200;BME280;33990;44.602;10.976;2023-08-01T04:09:06;100126.56;;;27.33;53.08
48200;BME280;33990;44.602;10.976;2023-08-01T04:11:33;100118.53;;;27.18;52.60
48200;BME280;33990;44.602;10.976;2023-08-01T04:14:01;100111.78;;;27.07;52.79
48200;BME280;33990;44.602;10.976;2023-08-01T04:16:28;100115.06;;;26.96;52.71
48200;BME280;33990;44.602;10.976;2023-08-01T04:18:56;100115.44;;;26.86;52.86
48200;BME280;33990;44.602;10.976;2023-08-01T04:21:23;100130.63;;;26.81;52.93
48200;BME280;33990;44.602;10.976;2023-08-01T04:23:51;100121.63;;;26.80;52.81
48200;BME280;33990;44.602;10.976;2023-08-01T04:26:18;100122.69;;;26.79;53.03
48200;BME280;33990;44.602;10.976;2023-08-01T04:28:46;100114.09;;;26.76;52.97
48200;BME280;33990;44.602;10.976;2023-08-01T04:31:16;100118.03;;;26.73;53.18
48200;BME280;33990;44.602;10.976;2023-08-01T04:33:44;100119.72;;;26.74;53.19
48200;BME280;33990;44.602;10.976;2023-08-01T04:36:11;100130.63;;;26.81;53.24
48200;BME280;33990;44.602;10.976;2023-08-01T04:38:39;100122.75;;;26.86;53.10
48200;BME280;33990;44.602;10.976;2023-08-01T04:41:06;100120.25;;;26.91;52.99
48200;BME280;33990;44.602;10.976;2023-08-01T04:43:35;100132.41;;;26.95;52.95
48200;BME280;33990;44.602;10.976;2023-08-01T04:46:02;100141.84;;;26.99;52.82
48200;BME280;33990;44.602;10.976;2023-08-01T04:48:29;100134.31;;;27.01;52.73
48200;BME280;33990;44.602;10.976;2023-08-01T04:50:57;100131.59;;;27.01;52.46
48200;BME280;33990;44.602;10.976;2023-08-01T04:53:24;100129.47;;;26.97;52.39
48200;BME280;33990;44.602;10.976;2023-08-01T04:55:51;100122.59;;;26.94;52.25
48200;BME280;33990;44.602;10.976;2023-08-01T04:58:19;100118.00;;;26.95;52.35
48200;BME280;33990;44.602;10.976;2023-08-01T05:00:46;100112.34;;;26.96;52.33
48200;BME280;33990;44.602;10.976;2023-08-01T05:03:14;100119.44;;;26.97;52.60
48200;BME280;33990;44.602;10.976;2023-08-01T05:05:41;100120.50;;;26.96;53.04
48200;BME280;33990;44.602;10.976;2023-08-01T05:08:08;100128.84;;;26.95;52.65
48200;BME280;33990;44.602;10.976;2023-08-01T05:10:36;100123.59;;;26.93;52.67
48200;BME280;33990;44.602;10.976;2023-08-01T05:13:03;100133.44;;;26.94;52.75
48200;BME280;33990;44.602;10.976;2023-08-01T05:15:30;100122.75;;;26.93;52.63
48200;BME280;33990;44.602;10.976;2023-08-01T05:17:58;100115.44;;;26.93;52.74
48200;BME280;33990;44.602;10.976;2023-08-01T05:20:25;100110.66;;;26.95;52.87
48200;BME280;33990;44.602;10.976;2023-08-01T05:22:58;100104.41;;;26.95;53.02
48200;BME280;33990;44.602;10.976;2023-08-01T05:25:26;100102.31;;;26.97;52.95
48200;BME280;33990;44.602;10.976;2023-08-01T05:27:53;100097.72;;;26.97;52.77
48200;BME280;33990;44.602;10.976;2023-08-01T05:30:21;100089.16;;;27.00;53.12
48200;BME280;33990;44.602;10.976;2023-08-01T05:32:48;100089.16;;;27.00;52.93
48200;BME280;33990;44.602;10.976;2023-08-01T05:35:17;100083.13;;;26.98;53.20
48200;BME280;33990;44.602;10.976;2023-08-01T05:37:44;100079.97;;;26.95;53.20
48200;BME280;33990;44.602;10.976;2023-08-01T05:40:12;100082.47;;;26.96;52.99
48200;BME280;33990;44.602;10.976;2023-08-01T05:42:39;100081.22;;;26.99;53.13
48200;BME280;33990;44.602;10.976;2023-08-01T05:45:07;100079.13;;;27.01;53.33
48200;BME280;33990;44.602;10.976;2023-08-01T05:47:34;100087.09;;;27.02;53.23
48200;BME280;33990;44.602;10.976;2023-08-01T05:50:04;100098.16;;;27.01;52.90
48200;BME280;33990;44.602;10.976;2023-08-01T05:52:31;100101.09;;;26.99;52.67
48200;BME280;33990;44.602;10.976;2023-08-01T05:54:58;100096.25;;;26.95;52.28
48200;BME280;33990;44.602;10.976;2023-08-01T05:57:26;100091.00;;;26.93;51.88
48200;BME280;33990;44.602;10.976;2023-08-01T05:59:53;100094.75;;;26.92;52.01
48200;BME280;33990;44.602;10.976;2023-08-01T06:02:21;100094.31;;;26.88;51.70
48200;BME280;33990;44.602;10.976;2023-08-01T06:04:48;100080.13;;;26.86;51.58
48200;BME280;33990;44.602;10.976;2023-08-01T06:07:15;100091.81;;;26.87;51.40
48200;BME280;33990;44.602;10.976;2023-08-01T06:09:43;100101.00;;;26.86;51.34
48200;BME280;33990;44.602;10.976;2023-08-01T06:12:10;100094.31;;;26.82;51.16
48200;BME280;33990;44.602;10.976;2023-08-01T06:14:38;100084.06;;;26.84;51.38
48200;BME280;33990;44.602;10.976;2023-08-01T06:17:05;100076.56;;;26.86;51.49
48200;BME280;33990;44.602;10.976;2023-08-01T06:19:32;100067.16;;;26.88;51.37
48200;BME280;33990;44.602;10.976;2023-08-01T06:22:00;100076.59;;;26.93;51.60
48200;BME280;33990;44.602;10.976;2023-08-01T06:24:27;100070.56;;;26.97;52.01
48200;BME280;33990;44.602;10.976;2023-08-01T06:26:54;100068.88;;;26.96;51.41
48200;BME280;33990;44.602;10.976;2023-08-01T06:29:22;100066.16;;;26.96;51.05
48200;BME280;33990;44.602;10.976;2023-08-01T06:31:50;100061.56;;;26.97;51.05
48200;BME280;33990;44.602;10.976;2023-08-01T06:34:17;100065.13;;;26.97;50.77
48200;BME280;33990;44.602;10.976;2023-08-01T06:36:44;100063.88;;;27.00;50.23
48200;BME280;33990;44.602;10.976;2023-08-01T06:39:12;100059.06;;;27.02;50.38
48200;BME280;33990;44.602;10.976;2023-08-01T06:41:39;100079.59;;;27.04;50.79
48200;BME280;33990;44.602;10.976;2023-08-01T06:44:06;100079.78;;;27.03;50.40
48200;BME280;33990;44.602;10.976;2023-08-01T06:46:34;100075.81;;;26.99;50.21
48200;BME280;33990;44.602;10.976;2023-08-01T06:49:02;100065.53;;;26.94;50.20
48200;BME280;33990;44.602;10.976;2023-08-01T06:51:29;100059.47;;;26.92;50.04
48200;BME280;33990;44.602;10.976;2023-08-01T06:53:56;100054.69;;;26.94;50.48
48200;BME280;33990;44.602;10.976;2023-08-01T06:56:24;100053.41;;;26.97;50.73
48200;BME280;33990;44.602;10.976;2023-08-01T06:58:51;100046.94;;;26.98;51.06
48200;BME280;33990;44.602;10.976;2023-08-01T07:01:19;100041.31;;;26.99;50.96
48200;BME280;33990;44.602;10.976;2023-08-01T07:03:46;100046.75;;;26.99;51.12
48200;BME280;33990;44.602;10.976;2023-08-01T07:06:13;100047.81;;;26.98;50.24
48200;BME280;33990;44.602;10.976;2023-08-01T07:08:41;100053.19;;;26.92;50.02
48200;BME280;33990;44.602;10.976;2023-08-01T07:11:08;100042.09;;;26.86;50.04
48200;BME280;33990;44.602;10.976;2023-08-01T07:13:35;100045.00;;;26.85;50.00
48200;BME280;33990;44.602;10.976;2023-08-01T07:16:03;100042.69;;;26.82;50.32
48200;BME280;33990;44.602;10.976;2023-08-01T07:18:30;100055.41;;;26.81;50.80
48200;BME280;33990;44.602;10.976;2023-08-01T07:21:01;100052.06;;;26.79;50.84
48200;BME280;33990;44.602;10.976;2023-08-01T07:23:30;100053.69;;;26.74;51.25
48200;BME280;33990;44.602;10.976;2023-08-01T07:25:58;100054.13;;;26.71;51.64
48200;BME280;33990;44.602;10.976;2023-08-01T07:28:25;100062.44;;;26.69;52.00
48200;BME280;33990;44.602;10.976;2023-08-01T07:31:03;100054.72;;;26.66;52.24
48200;BME280;33990;44.602;10.976;2023-08-01T07:33:34;100056.38;;;26.67;52.30
48200;BME280;33990;44.602;10.976;2023-08-01T07:36:02;100054.13;;;26.71;52.18
48200;BME280;33990;44.602;10.976;2023-08-01T07:38:30;100055.41;;;26.75;52.38
48200;BME280;33990;44.602;10.976;2023-08-01T07:41:04;100056.69;;;26.79;52.42
48200;BME280;33990;44.602;10.976;2023-08-01T07:43:31;100061.06;;;26.80;52.85
48200;BME280;33990;44.602;10.976;2023-08-01T07:46:00;100064.59;;;26.80;52.91
48200;BME280;33990;44.602;10.976;2023-08-01T07:48:27;100069.00;;;26.81;53.20
48200;BME280;33990;44.602;10.976;2023-08-01T07:50:54;100066.09;;;26.83;53.42
48200;BME280;33990;44.602;10.976;2023-08-01T07:53:22;100059.63;;;26.84;53.58
48200;BME280;33990;44.602;10.976;2023-08-01T07:55:51;100056.69;;;26.85;53.62
48200;BME280;33990;44.602;10.976;2023-08-01T07:58:19;100047.53;;;26.86;54.10
48200;BME280;33990;44.602;10.976;2023-08-01T08:00:46;100044.81;;;26.86;54.04
48200;BME280;33990;44.602;10.976;2023-08-01T08:03:13;100043.56;;;26.89;54.35
48200;BME280;33990;44.602;10.976;2023-08-01T08:05:41;100052.34;;;26.91;54.42
48200;BME280;33990;44.602;10.976;2023-08-01T08:08:08;100044.00;;;26.93;54.61
48200;BME280;33990;44.602;10.976;2023-08-01T08:10:35;100046.53;;;26.94;54.30
48200;BME280;33990;44.602;10.976;2023-08-01T08:13:03;100051.75;;;26.96;54.48
48200;BME280;33990;44.602;10.976;2023-08-01T08:15:30;100050.69;;;26.97;54.71
48200;BME280;33990;44.602;10.976;2023-08-01T08:18:01;100054.91;;;26.99;55.00
48200;BME280;33990;44.602;10.976;2023-08-01T08:20:34;100058.25;;;27.01;55.16
48200;BME280;33990;44.602;10.976;2023-08-01T08:23:07;100046.38;;;27.02;55.49
48200;BME280;33990;44.602;10.976;2023-08-01T08:25:34;100039.88;;;27.03;55.13
48200;BME280;33990;44.602;10.976;2023-08-01T08:28:02;100036.94;;;27.05;55.42
48200;BME280;33990;44.602;10.976;2023-08-01T08:30:29;100053.91;;;27.07;54.99
48200;BME280;33990;44.602;10.976;2023-08-01T08:32:58;100045.94;;;27.05;55.50
48200;BME280;33990;44.602;10.976;2023-08-01T08:35:25;100050.34;;;27.06;55.66
48200;BME280;33990;44.602;10.976;2023-08-01T08:37:53;100055.78;;;27.06;55.94
48200;BME280;33990;44.602;10.976;2023-08-01T08:40:20;100058.50;;;27.06;55.85
48200;BME280;33990;44.602;10.976;2023-08-01T08:42:48;100061.00;;;27.08;56.22
48200;BME280;33990;44.602;10.976;2023-08-01T08:45:19;100043.66;;;27.09;56.86
48200;BME280;33990;44.602;10.976;2023-08-01T08:47:55;100032.63;;;27.10;56.46
48200;BME280;33990;44.602;10.976;2023-08-01T08:50:23;100034.09;;;27.13;56.63
48200;BME280;33990;44.602;10.976;2023-08-01T08:52:51;100032.84;;;27.16;56.87
48200;BME280;33990;44.602;10.976;2023-08-01T08:55:19;100034.31;;;27.18;57.14
48200;BME280;33990;44.602;10.976;2023-08-01T08:57:52;100029.53;;;27.20;57.12
48200;BME280;33990;44.602;10.976;2023-08-01T09:00:20;100034.97;;;27.20;57.04
48200;BME280;33990;44.602;10.976;2023-08-01T09:02:49;100033.91;;;27.21;57.09
48200;BME280;33990;44.602;10.976;2023-08-01T09:05:16;100027.66;;;27.21;56.89
48200;BME280;33990;44.602;10.976;2023-08-01T09:07:46;100024.72;;;27.22;56.80
48200;BME280;33990;44.602;10.976;2023-08-01T09:10:16;100013.84;;;27.22;56.96
48200;BME280;33990;44.602;10.976;2023-08-01T09:12:43;100008.00;;;27.25;56.76
48200;BME280;33990;44.602;10.976;2023-08-01T09:15:11;100003.63;;;27.24;56.40
48200;BME280;33990;44.602;10.976;2023-08-01T09:17:54;100007.81;;;27.27;56.48
48200;BME280;33990;44.602;10.976;2023-08-01T09:20:23;100007.59;;;27.28;56.66
48200;BME280;33990;44.602;10.976;2023-08-01T09:22:51;100004.06;;;27.28;56.33
48200;BME280;33990;44.602;10.976;2023-08-01T09:25:18;100007.59;;;27.28;56.47
48200;BME280;33990;44.602;10.976;2023-08-01T09:27:45;100008.22;;;27.30;56.46
48200;BME280;33990;44.602;10.976;2023-08-01T09:30:14;100010.09;;;27.30;56.57
48200;BME280;33990;44.602;10.976;2023-08-01T09:32:56;100010.75;;;27.32;56.19
48200;BME280;33990;44.602;10.976;2023-08-01T09:35:24;100003.22;;;27.34;56.52
48200;BME280;33990;44.602;10.976;2023-08-01T09:37:52;99998.63;;;27.34;56.42
48200;BME280;33990;44.602;10.976;2023-08-01T09:40:19;99994.66;;;27.37;56.11
48200;BME280;33990;44.602;10.976;2023-08-01T09:42:47;99994.44;;;27.39;56.17
48200;BME280;33990;44.602;10.976;2023-08-01T09:45:15;99985.28;;;27.40;56.50
48200;BME280;33990;44.602;10.976;2023-08-01T09:47:45;99993.84;;;27.43;57.06
48200;BME280;33990;44.602;10.976;2023-08-01T09:50:21;99988.44;;;27.43;57.52
48200;BME280;33990;44.602;10.976;2023-08-01T09:52:49;99976.69;;;27.43;57.64
48200;BME280;33990;44.602;10.976;2023-08-01T09:55:33;99971.06;;;27.44;57.22
48200;BME280;33990;44.602;10.976;2023-08-01T09:58:00;99960.19;;;27.44;57.75
48200;BME280;33990;44.602;10.976;2023-08-01T10:00:29;99963.75;;;27.45;57.98
48200;BME280;33990;44.602;10.976;2023-08-01T10:02:58;99965.63;;;27.44;57.71
48200;BME280;33990;44.602;10.976;2023-08-01T10:05:31;99960.19;;;27.44;57.53
48200;BME280;33990;44.602;10.976;2023-08-01T10:08:02;99956.63;;;27.44;57.76
48200;BME280;33990;44.602;10.976;2023-08-01T10:10:30;99960.19;;;27.44;57.23
48200;BME280;33990;44.602;10.976;2023-08-01T10:12:57;99958.31;;;27.45;57.03
48200;BME280;33990;44.602;10.976;2023-08-01T10:15:25;99948.25;;;27.45;57.05
48200;BME280;33990;44.602;10.976;2023-08-01T10:17:55;99943.88;;;27.44;57.24
48200;BME280;33990;44.602;10.976;2023-08-01T10:20:22;99937.38;;;27.45;57.03
48200;BME280;33990;44.602;10.976;2023-08-01T10:22:51;99939.91;;;27.47;57.22
48200;BME280;33990;44.602;10.976;2023-08-01T10:25:19;99930.72;;;27.48;57.56
48200;BME280;33990;44.602;10.976;2023-08-01T10:28:02;99921.72;;;27.47;57.97
48200;BME280;33990;44.602;10.976;2023-08-01T10:30:30;99916.28;;;27.47;58.34
48200;BME280;33990;44.602;10.976;2023-08-01T10:32:59;99919.00;;;27.47;58.35
48200;BME280;33990;44.602;10.976;2023-08-01T10:35:37;99923.38;;;27.48;58.51
48200;BME280;33990;44.602;10.976;2023-08-01T10:38:11;99911.69;;;27.48;58.36
48200;BME280;33990;44.602;10.976;2023-08-01T10:40:40;99902.69;;;27.47;58.02
48200;BME280;33990;44.602;10.976;2023-08-01T10:43:22;99891.81;;;27.47;58.30
48200;BME280;33990;44.602;10.976;2023-08-01T10:46:03;99890.13;;;27.46;58.29
48200;BME280;33990;44.602;10.976;2023-08-01T10:48:31;99904.38;;;27.48;58.58
48200;BME280;33990;44.602;10.976;2023-08-01T10:50:59;99905.19;;;27.49;58.97
48200;BME280;33990;44.602;10.976;2023-08-01T10:53:37;99903.13;;;27.51;58.35
48200;BME280;33990;44.602;10.976;2023-08-01T10:56:16;99901.25;;;27.51;58.72
48200;BME280;33990;44.602;10.976;2023-08-01T10:58:43;99893.09;;;27.51;58.70
48200;BME280;33990;44.602;10.976;2023-08-01T11:01:11;99890.97;;;27.53;57.90
48200;BME280;33990;44.602;10.976;2023-08-01T11:03:39;99896.00;;;27.56;56.70
48200;BME280;33990;44.602;10.976;2023-08-01T11:06:07;99911.69;;;27.61;56.34
48200;BME280;33990;44.602;10.976;2023-08-01T11:08:38;99916.72;;;27.64;56.16
48200;BME280;33990;44.602;10.976;2023-08-01T11:11:08;99925.28;;;27.68;56.27
48200;BME280;33990;44.602;10.976;2023-08-01T11:13:40;99896.00;;;27.70;56.08
48200;BME280;33990;44.602;10.976;2023-08-01T11:16:11;99881.97;;;27.73;55.53
48200;BME280;33990;44.602;10.976;2023-08-01T11:18:43;99886.22;;;27.75;55.95
48200;BME280;33990;44.602;10.976;2023-08-01T11:21:10;99875.53;;;27.74;56.18
48200;BME280;33990;44.602;10.976;2023-08-01T11:23:38;99875.53;;;27.74;56.79
48200;BME280;33990;44.602;10.976;2023-08-01T11:26:08;99872.16;;;27.72;57.41
48200;BME280;33990;44.602;10.976;2023-08-01T11:28:36;99873.41;;;27.69;57.98
48200;BME280;33990;44.602;10.976;2023-08-01T11:31:13;99867.97;;;27.69;57.95
48200;BME280;33990;44.602;10.976;2023-08-01T11:33:41;99860.03;;;27.68;57.72
48200;BME280;33990;44.602;10.976;2023-08-01T11:36:09;99853.53;;;27.69;58.03
48200;BME280;33990;44.602;10.976;2023-08-01T11:38:36;99851.66;;;27.69;59.56
48200;BME280;33990;44.602;10.976;2023-08-01T11:41:05;99851.66;;;27.69;59.45
48200;BME280;33990;44.602;10.976;2023-08-01T11:43:42;99850.81;;;27.69;59.82
48200;BME280;33990;44.602;10.976;2023-08-01T11:46:10;99852.72;;;27.68;59.78
48200;BME280;33990;44.602;10.976;2023-08-01T11:48:38;99838.47;;;27.66;60.48
48200;BME280;33990;44.602;10.976;2023-08-01T11:51:06;99844.97;;;27.65;60.84
48200;BME280;33990;44.602;10.976;2023-08-01T11:53:33;99831.38;;;27.65;61.83
48200;BME280;33990;44.602;10.976;2023-08-01T11:56:06;99829.88;;;27.63;62.76
48200;BME280;33990;44.602;10.976;2023-08-01T11:58:40;99832.84;;;27.61;62.52
48200;BME280;33990;44.602;10.976;2023-08-01T12:01:12;99841.00;;;27.61;62.38
48200;BME280;33990;44.602;10.976;2023-08-01T12:03:51;99846.66;;;27.59;62.64
48200;BME280;33990;44.602;10.976;2023-08-01T12:06:20;99834.72;;;27.60;62.10
48200;BME280;33990;44.602;10.976;2023-08-01T12:08:52;99827.81;;;27.58;61.95
48200;BME280;33990;44.602;10.976;2023-08-01T12:11:25;99812.56;;;27.57;62.06
48200;BME280;33990;44.602;10.976;2023-08-01T12:14:22;99827.38;;;27.54;62.04
48200;BME280;33990;44.602;10.976;2023-08-01T12:16:50;99838.25;;;27.54;61.92
48200;BME280;33990;44.602;10.976;2023-08-01T12:19:19;99824.66;;;27.54;62.09
48200;BME280;33990;44.602;10.976;2023-08-01T12:21:49;99822.81;;;27.55;62.08
48200;BME280;33990;44.602;10.976;2023-08-01T12:24:17;99810.25;;;27.54;62.25
48200;BME280;33990;44.602;10.976;2023-08-01T12:26:44;99800.19;;;27.54;62.53
48200;BME280;33990;44.602;10.976;2023-08-01T12:29:11;99794.38;;;27.51;60.01
48200;BME280;33990;44.602;10.976;2023-08-01T12:31:39;99794.59;;;27.29;56.79
48200;BME280;33990;44.602;10.976;2023-08-01T12:34:07;99808.56;;;27.06;56.93
48200;BME280;33990;44.602;10.976;2023-08-01T12:36:34;99798.91;;;26.84;55.87
48200;BME280;33990;44.602;10.976;2023-08-01T12:39:03;99795.09;;;26.65;55.18
48200;BME280;33990;44.602;10.976;2023-08-01T12:41:31;99810.75;;;26.50;54.60
48200;BME280;33990;44.602;10.976;2023-08-01T12:43:58;99814.19;;;26.37;54.34
48200;BME280;33990;44.602;10.976;2023-08-01T12:46:27;99808.31;;;26.27;53.96
48200;BME280;33990;44.602;10.976;2023-08-01T12:48:54;99789.50;;;26.19;53.78
48200;BME280;33990;44.602;10.976;2023-08-01T12:51:21;99783.19;;;26.11;53.63